﻿<?xml version="1.0" encoding="UTF-8" standalone="no" ?>
<gpx xmlns="http://www.topografix.com/GPX/1/1" creator="CompeGPS" version="1.1" xmlns:xsi="http://www.w3.org/2001/XMLSchema-instance" xsi:schemaLocation="http://www.topografix.com/GPX/1/1 http://www.topografix.com/GPX/1/1/gpx.xsd http://www.garmin.com/xmlschemas/GpxExtensions/v3 http://www.garmin.com/xmlschemas/GpxExtensionsv3.xsd http://www.garmin.com/xmlschemas/TrackPointExtension/v1 http://www.garmin.com/xmlschemas/TrackPointExtensionv1.xsd" xmlns:gpxtpx="http://www.garmin.com/xmlschemas/TrackPointExtension/v1">
  <metadata>
    <link href="http://www.compegps.com">
      <text>CompeGPS TEAM, SL</text>
    </link>
    <time>2014-08-16T12:36:57Z</time>
    <bounds maxlat="42.815735" maxlon="0.155048" minlat="42.798360" minlon="0.143082"/>
  </metadata>
  <trk>
    <name>mec_ok</name>
    <trkseg>
      <trkpt lat="42.815684" lon="0.146398">
        <ele>2073.8</ele>
        <time>2014-08-15T07:26:13Z</time>
      </trkpt>
      <trkpt lat="42.815585" lon="0.146460">
        <ele>2074.3</ele>
        <time>2014-08-15T07:26:25Z</time>
      </trkpt>
      <trkpt lat="42.815501" lon="0.146539">
        <ele>2074.9</ele>
        <time>2014-08-15T07:26:36Z</time>
      </trkpt>
      <trkpt lat="42.815394" lon="0.146591">
        <ele>2075.9</ele>
        <time>2014-08-15T07:26:47Z</time>
      </trkpt>
      <trkpt lat="42.815308" lon="0.146677">
        <ele>2076.6</ele>
        <time>2014-08-15T07:26:58Z</time>
      </trkpt>
      <trkpt lat="42.815207" lon="0.146727">
        <ele>2077.0</ele>
        <time>2014-08-15T07:27:11Z</time>
      </trkpt>
      <trkpt lat="42.815111" lon="0.146801">
        <ele>2079.0</ele>
        <time>2014-08-15T07:27:23Z</time>
      </trkpt>
      <trkpt lat="42.815038" lon="0.146783">
        <ele>2081.8</ele>
        <time>2014-08-15T07:27:34Z</time>
      </trkpt>
      <trkpt lat="42.814962" lon="0.146698">
        <ele>2084.4</ele>
        <time>2014-08-15T07:27:45Z</time>
      </trkpt>
      <trkpt lat="42.814882" lon="0.146653">
        <ele>2086.1</ele>
        <time>2014-08-15T07:27:56Z</time>
      </trkpt>
      <trkpt lat="42.814838" lon="0.146529">
        <ele>2088.2</ele>
        <time>2014-08-15T07:28:08Z</time>
      </trkpt>
      <trkpt lat="42.814758" lon="0.146441">
        <ele>2090.5</ele>
        <time>2014-08-15T07:28:19Z</time>
      </trkpt>
      <trkpt lat="42.814653" lon="0.146468">
        <ele>2092.6</ele>
        <time>2014-08-15T07:28:31Z</time>
      </trkpt>
      <trkpt lat="42.814558" lon="0.146459">
        <ele>2094.7</ele>
        <time>2014-08-15T07:28:43Z</time>
      </trkpt>
      <trkpt lat="42.814454" lon="0.146467">
        <ele>2096.7</ele>
        <time>2014-08-15T07:28:54Z</time>
      </trkpt>
      <trkpt lat="42.814366" lon="0.146483">
        <ele>2099.2</ele>
        <time>2014-08-15T07:29:06Z</time>
      </trkpt>
      <trkpt lat="42.814276" lon="0.146428">
        <ele>2100.7</ele>
        <time>2014-08-15T07:29:16Z</time>
      </trkpt>
      <trkpt lat="42.814196" lon="0.146343">
        <ele>2103.0</ele>
        <time>2014-08-15T07:29:28Z</time>
      </trkpt>
      <trkpt lat="42.814089" lon="0.146335">
        <ele>2105.1</ele>
        <time>2014-08-15T07:29:40Z</time>
      </trkpt>
      <trkpt lat="42.813990" lon="0.146336">
        <ele>2106.9</ele>
        <time>2014-08-15T07:29:50Z</time>
      </trkpt>
      <trkpt lat="42.813903" lon="0.146291">
        <ele>2108.8</ele>
        <time>2014-08-15T07:30:00Z</time>
      </trkpt>
      <trkpt lat="42.813823" lon="0.146284">
        <ele>2110.1</ele>
        <time>2014-08-15T07:30:09Z</time>
      </trkpt>
      <trkpt lat="42.813738" lon="0.146239">
        <ele>2111.5</ele>
        <time>2014-08-15T07:30:19Z</time>
      </trkpt>
      <trkpt lat="42.813650" lon="0.146220">
        <ele>2112.8</ele>
        <time>2014-08-15T07:30:29Z</time>
      </trkpt>
      <trkpt lat="42.813572" lon="0.146255">
        <ele>2113.8</ele>
        <time>2014-08-15T07:30:39Z</time>
      </trkpt>
      <trkpt lat="42.813483" lon="0.146270">
        <ele>2115.3</ele>
        <time>2014-08-15T07:30:48Z</time>
      </trkpt>
      <trkpt lat="42.813386" lon="0.146296">
        <ele>2116.4</ele>
        <time>2014-08-15T07:30:59Z</time>
      </trkpt>
      <trkpt lat="42.813333" lon="0.146317">
        <ele>2118.1</ele>
        <time>2014-08-15T07:31:33Z</time>
      </trkpt>
      <trkpt lat="42.813250" lon="0.146359">
        <ele>2117.6</ele>
        <time>2014-08-15T07:32:02Z</time>
      </trkpt>
      <trkpt lat="42.813262" lon="0.146488">
        <ele>2117.9</ele>
        <time>2014-08-15T07:32:12Z</time>
      </trkpt>
      <trkpt lat="42.813280" lon="0.146610">
        <ele>2117.9</ele>
        <time>2014-08-15T07:32:21Z</time>
      </trkpt>
      <trkpt lat="42.813190" lon="0.146664">
        <ele>2117.8</ele>
        <time>2014-08-15T07:32:32Z</time>
      </trkpt>
      <trkpt lat="42.813093" lon="0.146739">
        <ele>2117.9</ele>
        <time>2014-08-15T07:32:47Z</time>
      </trkpt>
      <trkpt lat="42.813013" lon="0.146772">
        <ele>2118.1</ele>
        <time>2014-08-15T07:33:05Z</time>
      </trkpt>
      <trkpt lat="42.812923" lon="0.146819">
        <ele>2119.1</ele>
        <time>2014-08-15T07:33:15Z</time>
      </trkpt>
      <trkpt lat="42.812887" lon="0.146749">
        <ele>2121.2</ele>
        <time>2014-08-15T07:33:25Z</time>
      </trkpt>
      <trkpt lat="42.812797" lon="0.146805">
        <ele>2123.6</ele>
        <time>2014-08-15T07:33:42Z</time>
      </trkpt>
      <trkpt lat="42.812712" lon="0.146871">
        <ele>2123.7</ele>
        <time>2014-08-15T07:34:00Z</time>
      </trkpt>
      <trkpt lat="42.812648" lon="0.146933">
        <ele>2124.2</ele>
        <time>2014-08-15T07:34:08Z</time>
      </trkpt>
      <trkpt lat="42.812584" lon="0.147020">
        <ele>2126.8</ele>
        <time>2014-08-15T07:34:18Z</time>
      </trkpt>
      <trkpt lat="42.812492" lon="0.147021">
        <ele>2128.4</ele>
        <time>2014-08-15T07:34:28Z</time>
      </trkpt>
      <trkpt lat="42.812402" lon="0.146996">
        <ele>2130.3</ele>
        <time>2014-08-15T07:34:37Z</time>
      </trkpt>
      <trkpt lat="42.812310" lon="0.146976">
        <ele>2131.5</ele>
        <time>2014-08-15T07:34:45Z</time>
      </trkpt>
      <trkpt lat="42.812238" lon="0.146902">
        <ele>2132.8</ele>
        <time>2014-08-15T07:34:54Z</time>
      </trkpt>
      <trkpt lat="42.812159" lon="0.146838">
        <ele>2134.0</ele>
        <time>2014-08-15T07:35:02Z</time>
      </trkpt>
      <trkpt lat="42.812056" lon="0.146851">
        <ele>2134.7</ele>
        <time>2014-08-15T07:35:09Z</time>
      </trkpt>
      <trkpt lat="42.811966" lon="0.146852">
        <ele>2134.9</ele>
        <time>2014-08-15T07:35:16Z</time>
      </trkpt>
      <trkpt lat="42.811872" lon="0.146853">
        <ele>2135.1</ele>
        <time>2014-08-15T07:35:24Z</time>
      </trkpt>
      <trkpt lat="42.811791" lon="0.146862">
        <ele>2136.1</ele>
        <time>2014-08-15T07:35:31Z</time>
      </trkpt>
      <trkpt lat="42.811716" lon="0.146805">
        <ele>2136.2</ele>
        <time>2014-08-15T07:35:38Z</time>
      </trkpt>
      <trkpt lat="42.811629" lon="0.146765">
        <ele>2136.7</ele>
        <time>2014-08-15T07:35:45Z</time>
      </trkpt>
      <trkpt lat="42.811550" lon="0.146683">
        <ele>2137.7</ele>
        <time>2014-08-15T07:35:53Z</time>
      </trkpt>
      <trkpt lat="42.811470" lon="0.146600">
        <ele>2138.8</ele>
        <time>2014-08-15T07:36:01Z</time>
      </trkpt>
      <trkpt lat="42.811408" lon="0.146513">
        <ele>2139.4</ele>
        <time>2014-08-15T07:36:09Z</time>
      </trkpt>
      <trkpt lat="42.811342" lon="0.146433">
        <ele>2139.8</ele>
        <time>2014-08-15T07:36:17Z</time>
      </trkpt>
      <trkpt lat="42.811304" lon="0.146397">
        <ele>2141.0</ele>
        <time>2014-08-15T07:36:55Z</time>
      </trkpt>
      <trkpt lat="42.811244" lon="0.146352">
        <ele>2141.2</ele>
        <time>2014-08-15T07:38:24Z</time>
      </trkpt>
      <trkpt lat="42.811155" lon="0.146269">
        <ele>2142.9</ele>
        <time>2014-08-15T07:38:35Z</time>
      </trkpt>
      <trkpt lat="42.811086" lon="0.146184">
        <ele>2143.6</ele>
        <time>2014-08-15T07:38:42Z</time>
      </trkpt>
      <trkpt lat="42.810993" lon="0.146134">
        <ele>2144.6</ele>
        <time>2014-08-15T07:38:50Z</time>
      </trkpt>
      <trkpt lat="42.810900" lon="0.146087">
        <ele>2145.9</ele>
        <time>2014-08-15T07:38:59Z</time>
      </trkpt>
      <trkpt lat="42.810815" lon="0.146075">
        <ele>2146.7</ele>
        <time>2014-08-15T07:39:23Z</time>
      </trkpt>
      <trkpt lat="42.810745" lon="0.146001">
        <ele>2146.9</ele>
        <time>2014-08-15T07:39:31Z</time>
      </trkpt>
      <trkpt lat="42.810673" lon="0.145945">
        <ele>2147.9</ele>
        <time>2014-08-15T07:39:39Z</time>
      </trkpt>
      <trkpt lat="42.810575" lon="0.145901">
        <ele>2148.8</ele>
        <time>2014-08-15T07:39:46Z</time>
      </trkpt>
      <trkpt lat="42.810487" lon="0.145854">
        <ele>2149.5</ele>
        <time>2014-08-15T07:39:53Z</time>
      </trkpt>
      <trkpt lat="42.810387" lon="0.145814">
        <ele>2150.3</ele>
        <time>2014-08-15T07:40:01Z</time>
      </trkpt>
      <trkpt lat="42.810306" lon="0.145751">
        <ele>2151.4</ele>
        <time>2014-08-15T07:40:09Z</time>
      </trkpt>
      <trkpt lat="42.810216" lon="0.145705">
        <ele>2152.5</ele>
        <time>2014-08-15T07:40:17Z</time>
      </trkpt>
      <trkpt lat="42.810120" lon="0.145707">
        <ele>2153.4</ele>
        <time>2014-08-15T07:40:25Z</time>
      </trkpt>
      <trkpt lat="42.809998" lon="0.145703">
        <ele>2154.2</ele>
        <time>2014-08-15T07:40:33Z</time>
      </trkpt>
      <trkpt lat="42.809926" lon="0.145625">
        <ele>2154.9</ele>
        <time>2014-08-15T07:40:40Z</time>
      </trkpt>
      <trkpt lat="42.809857" lon="0.145542">
        <ele>2155.5</ele>
        <time>2014-08-15T07:40:48Z</time>
      </trkpt>
      <trkpt lat="42.809776" lon="0.145460">
        <ele>2156.3</ele>
        <time>2014-08-15T07:40:55Z</time>
      </trkpt>
      <trkpt lat="42.809695" lon="0.145393">
        <ele>2157.6</ele>
        <time>2014-08-15T07:41:03Z</time>
      </trkpt>
      <trkpt lat="42.809602" lon="0.145345">
        <ele>2159.1</ele>
        <time>2014-08-15T07:41:12Z</time>
      </trkpt>
      <trkpt lat="42.809495" lon="0.145329">
        <ele>2161.4</ele>
        <time>2014-08-15T07:41:22Z</time>
      </trkpt>
      <trkpt lat="42.809399" lon="0.145299">
        <ele>2162.8</ele>
        <time>2014-08-15T07:41:31Z</time>
      </trkpt>
      <trkpt lat="42.809323" lon="0.145254">
        <ele>2163.8</ele>
        <time>2014-08-15T07:41:40Z</time>
      </trkpt>
      <trkpt lat="42.809220" lon="0.145216">
        <ele>2165.9</ele>
        <time>2014-08-15T07:41:51Z</time>
      </trkpt>
      <trkpt lat="42.809124" lon="0.145206">
        <ele>2168.3</ele>
        <time>2014-08-15T07:42:02Z</time>
      </trkpt>
      <trkpt lat="42.809027" lon="0.145224">
        <ele>2170.9</ele>
        <time>2014-08-15T07:42:13Z</time>
      </trkpt>
      <trkpt lat="42.808926" lon="0.145265">
        <ele>2173.7</ele>
        <time>2014-08-15T07:42:25Z</time>
      </trkpt>
      <trkpt lat="42.808847" lon="0.145250">
        <ele>2176.9</ele>
        <time>2014-08-15T07:42:39Z</time>
      </trkpt>
      <trkpt lat="42.808756" lon="0.145292">
        <ele>2178.0</ele>
        <time>2014-08-15T07:42:57Z</time>
      </trkpt>
      <trkpt lat="42.808666" lon="0.145289">
        <ele>2180.3</ele>
        <time>2014-08-15T07:43:12Z</time>
      </trkpt>
      <trkpt lat="42.808552" lon="0.145244">
        <ele>2181.9</ele>
        <time>2014-08-15T07:43:22Z</time>
      </trkpt>
      <trkpt lat="42.808445" lon="0.145218">
        <ele>2183.8</ele>
        <time>2014-08-15T07:43:32Z</time>
      </trkpt>
      <trkpt lat="42.808351" lon="0.145218">
        <ele>2187.2</ele>
        <time>2014-08-15T07:43:47Z</time>
      </trkpt>
      <trkpt lat="42.808258" lon="0.145241">
        <ele>2190.5</ele>
        <time>2014-08-15T07:44:01Z</time>
      </trkpt>
      <trkpt lat="42.808153" lon="0.145234">
        <ele>2194.0</ele>
        <time>2014-08-15T07:44:16Z</time>
      </trkpt>
      <trkpt lat="42.808047" lon="0.145262">
        <ele>2197.4</ele>
        <time>2014-08-15T07:44:31Z</time>
      </trkpt>
      <trkpt lat="42.807940" lon="0.145260">
        <ele>2201.6</ele>
        <time>2014-08-15T07:44:49Z</time>
      </trkpt>
      <trkpt lat="42.807856" lon="0.145312">
        <ele>2206.4</ele>
        <time>2014-08-15T07:45:09Z</time>
      </trkpt>
      <trkpt lat="42.807785" lon="0.145420">
        <ele>2211.6</ele>
        <time>2014-08-15T07:45:29Z</time>
      </trkpt>
      <trkpt lat="42.807713" lon="0.145488">
        <ele>2214.9</ele>
        <time>2014-08-15T07:45:49Z</time>
      </trkpt>
      <trkpt lat="42.807618" lon="0.145532">
        <ele>2220.7</ele>
        <time>2014-08-15T07:46:12Z</time>
      </trkpt>
      <trkpt lat="42.807591" lon="0.145516">
        <ele>2223.4</ele>
        <time>2014-08-15T07:46:57Z</time>
      </trkpt>
      <trkpt lat="42.807528" lon="0.145455">
        <ele>2225.9</ele>
        <time>2014-08-15T07:47:20Z</time>
      </trkpt>
      <trkpt lat="42.807449" lon="0.145397">
        <ele>2230.0</ele>
        <time>2014-08-15T07:47:36Z</time>
      </trkpt>
      <trkpt lat="42.807352" lon="0.145334">
        <ele>2234.1</ele>
        <time>2014-08-15T07:47:50Z</time>
      </trkpt>
      <trkpt lat="42.807270" lon="0.145277">
        <ele>2236.2</ele>
        <time>2014-08-15T07:48:00Z</time>
      </trkpt>
      <trkpt lat="42.807182" lon="0.145204">
        <ele>2238.6</ele>
        <time>2014-08-15T07:48:10Z</time>
      </trkpt>
      <trkpt lat="42.807113" lon="0.145136">
        <ele>2240.3</ele>
        <time>2014-08-15T07:48:19Z</time>
      </trkpt>
      <trkpt lat="42.807025" lon="0.145104">
        <ele>2241.8</ele>
        <time>2014-08-15T07:48:32Z</time>
      </trkpt>
      <trkpt lat="42.806948" lon="0.145030">
        <ele>2242.1</ele>
        <time>2014-08-15T07:48:41Z</time>
      </trkpt>
      <trkpt lat="42.806848" lon="0.144965">
        <ele>2242.6</ele>
        <time>2014-08-15T07:48:50Z</time>
      </trkpt>
      <trkpt lat="42.806766" lon="0.144895">
        <ele>2243.5</ele>
        <time>2014-08-15T07:48:59Z</time>
      </trkpt>
      <trkpt lat="42.806673" lon="0.144823">
        <ele>2243.8</ele>
        <time>2014-08-15T07:49:08Z</time>
      </trkpt>
      <trkpt lat="42.806594" lon="0.144731">
        <ele>2244.3</ele>
        <time>2014-08-15T07:49:17Z</time>
      </trkpt>
      <trkpt lat="42.806517" lon="0.144630">
        <ele>2244.7</ele>
        <time>2014-08-15T07:49:26Z</time>
      </trkpt>
      <trkpt lat="42.806451" lon="0.144526">
        <ele>2244.8</ele>
        <time>2014-08-15T07:49:36Z</time>
      </trkpt>
      <trkpt lat="42.806391" lon="0.144408">
        <ele>2245.8</ele>
        <time>2014-08-15T07:49:47Z</time>
      </trkpt>
      <trkpt lat="42.806324" lon="0.144297">
        <ele>2247.3</ele>
        <time>2014-08-15T07:49:56Z</time>
      </trkpt>
      <trkpt lat="42.806297" lon="0.144176">
        <ele>2248.6</ele>
        <time>2014-08-15T07:50:08Z</time>
      </trkpt>
      <trkpt lat="42.806252" lon="0.144059">
        <ele>2250.4</ele>
        <time>2014-08-15T07:50:20Z</time>
      </trkpt>
      <trkpt lat="42.806215" lon="0.143979">
        <ele>2253.1</ele>
        <time>2014-08-15T07:50:35Z</time>
      </trkpt>
      <trkpt lat="42.806134" lon="0.143884">
        <ele>2255.3</ele>
        <time>2014-08-15T07:50:51Z</time>
      </trkpt>
      <trkpt lat="42.806023" lon="0.143811">
        <ele>2257.4</ele>
        <time>2014-08-15T07:51:02Z</time>
      </trkpt>
      <trkpt lat="42.805949" lon="0.143702">
        <ele>2260.7</ele>
        <time>2014-08-15T07:51:15Z</time>
      </trkpt>
      <trkpt lat="42.805913" lon="0.143583">
        <ele>2263.9</ele>
        <time>2014-08-15T07:51:29Z</time>
      </trkpt>
      <trkpt lat="42.805859" lon="0.143471">
        <ele>2267.1</ele>
        <time>2014-08-15T07:51:45Z</time>
      </trkpt>
      <trkpt lat="42.805781" lon="0.143369">
        <ele>2270.1</ele>
        <time>2014-08-15T07:51:58Z</time>
      </trkpt>
      <trkpt lat="42.805712" lon="0.143241">
        <ele>2273.0</ele>
        <time>2014-08-15T07:52:13Z</time>
      </trkpt>
      <trkpt lat="42.805656" lon="0.143143">
        <ele>2277.2</ele>
        <time>2014-08-15T07:52:31Z</time>
      </trkpt>
      <trkpt lat="42.805572" lon="0.143082">
        <ele>2282.0</ele>
        <time>2014-08-15T07:52:53Z</time>
      </trkpt>
      <trkpt lat="42.805480" lon="0.143152">
        <ele>2285.6</ele>
        <time>2014-08-15T07:53:10Z</time>
      </trkpt>
      <trkpt lat="42.805414" lon="0.143269">
        <ele>2288.6</ele>
        <time>2014-08-15T07:53:24Z</time>
      </trkpt>
      <trkpt lat="42.805322" lon="0.143299">
        <ele>2291.6</ele>
        <time>2014-08-15T07:53:39Z</time>
      </trkpt>
      <trkpt lat="42.805248" lon="0.143361">
        <ele>2294.8</ele>
        <time>2014-08-15T07:53:54Z</time>
      </trkpt>
      <trkpt lat="42.805178" lon="0.143437">
        <ele>2298.4</ele>
        <time>2014-08-15T07:54:10Z</time>
      </trkpt>
      <trkpt lat="42.805099" lon="0.143487">
        <ele>2301.7</ele>
        <time>2014-08-15T07:54:25Z</time>
      </trkpt>
      <trkpt lat="42.805031" lon="0.143572">
        <ele>2304.9</ele>
        <time>2014-08-15T07:54:40Z</time>
      </trkpt>
      <trkpt lat="42.804951" lon="0.143671">
        <ele>2308.4</ele>
        <time>2014-08-15T07:54:57Z</time>
      </trkpt>
      <trkpt lat="42.804880" lon="0.143738">
        <ele>2310.7</ele>
        <time>2014-08-15T07:55:12Z</time>
      </trkpt>
      <trkpt lat="42.804768" lon="0.143735">
        <ele>2313.7</ele>
        <time>2014-08-15T07:55:27Z</time>
      </trkpt>
      <trkpt lat="42.804686" lon="0.143795">
        <ele>2316.1</ele>
        <time>2014-08-15T07:55:43Z</time>
      </trkpt>
      <trkpt lat="42.804618" lon="0.143855">
        <ele>2320.0</ele>
        <time>2014-08-15T07:56:09Z</time>
      </trkpt>
      <trkpt lat="42.804496" lon="0.143857">
        <ele>2321.1</ele>
        <time>2014-08-15T07:56:21Z</time>
      </trkpt>
      <trkpt lat="42.804415" lon="0.143835">
        <ele>2323.4</ele>
        <time>2014-08-15T07:56:34Z</time>
      </trkpt>
      <trkpt lat="42.804310" lon="0.143869">
        <ele>2325.2</ele>
        <time>2014-08-15T07:56:48Z</time>
      </trkpt>
      <trkpt lat="42.804194" lon="0.143856">
        <ele>2326.6</ele>
        <time>2014-08-15T07:57:00Z</time>
      </trkpt>
      <trkpt lat="42.804091" lon="0.143920">
        <ele>2326.0</ele>
        <time>2014-08-15T07:57:21Z</time>
      </trkpt>
      <trkpt lat="42.804013" lon="0.144020">
        <ele>2327.4</ele>
        <time>2014-08-15T07:57:42Z</time>
      </trkpt>
      <trkpt lat="42.803939" lon="0.144040">
        <ele>2330.7</ele>
        <time>2014-08-15T07:58:07Z</time>
      </trkpt>
      <trkpt lat="42.803883" lon="0.144121">
        <ele>2335.2</ele>
        <time>2014-08-15T07:58:27Z</time>
      </trkpt>
      <trkpt lat="42.803790" lon="0.144154">
        <ele>2340.0</ele>
        <time>2014-08-15T07:58:45Z</time>
      </trkpt>
      <trkpt lat="42.803681" lon="0.144182">
        <ele>2343.6</ele>
        <time>2014-08-15T07:59:04Z</time>
      </trkpt>
      <trkpt lat="42.803584" lon="0.144235">
        <ele>2347.3</ele>
        <time>2014-08-15T07:59:23Z</time>
      </trkpt>
      <trkpt lat="42.803502" lon="0.144294">
        <ele>2352.0</ele>
        <time>2014-08-15T07:59:45Z</time>
      </trkpt>
      <trkpt lat="42.803423" lon="0.144385">
        <ele>2355.4</ele>
        <time>2014-08-15T08:00:03Z</time>
      </trkpt>
      <trkpt lat="42.803342" lon="0.144469">
        <ele>2359.6</ele>
        <time>2014-08-15T08:00:22Z</time>
      </trkpt>
      <trkpt lat="42.803291" lon="0.144539">
        <ele>2364.6</ele>
        <time>2014-08-15T08:00:40Z</time>
      </trkpt>
      <trkpt lat="42.803173" lon="0.144544">
        <ele>2368.6</ele>
        <time>2014-08-15T08:00:58Z</time>
      </trkpt>
      <trkpt lat="42.803095" lon="0.144570">
        <ele>2373.1</ele>
        <time>2014-08-15T08:01:19Z</time>
      </trkpt>
      <trkpt lat="42.802974" lon="0.144586">
        <ele>2377.9</ele>
        <time>2014-08-15T08:01:39Z</time>
      </trkpt>
      <trkpt lat="42.802911" lon="0.144611">
        <ele>2381.8</ele>
        <time>2014-08-15T08:01:58Z</time>
      </trkpt>
      <trkpt lat="42.802857" lon="0.144616">
        <ele>2388.4</ele>
        <time>2014-08-15T08:04:43Z</time>
      </trkpt>
      <trkpt lat="42.802764" lon="0.144620">
        <ele>2393.2</ele>
        <time>2014-08-15T08:05:02Z</time>
      </trkpt>
      <trkpt lat="42.802757" lon="0.144603">
        <ele>2395.6</ele>
        <time>2014-08-15T08:05:37Z</time>
      </trkpt>
      <trkpt lat="42.802710" lon="0.144511">
        <ele>2397.5</ele>
        <time>2014-08-15T08:05:59Z</time>
      </trkpt>
      <trkpt lat="42.802635" lon="0.144431">
        <ele>2400.7</ele>
        <time>2014-08-15T08:06:28Z</time>
      </trkpt>
      <trkpt lat="42.802636" lon="0.144412">
        <ele>2405.5</ele>
        <time>2014-08-15T08:07:00Z</time>
      </trkpt>
      <trkpt lat="42.802630" lon="0.144374">
        <ele>2405.6</ele>
        <time>2014-08-15T08:07:25Z</time>
      </trkpt>
      <trkpt lat="42.802611" lon="0.144208">
        <ele>2404.9</ele>
        <time>2014-08-15T08:07:40Z</time>
      </trkpt>
      <trkpt lat="42.802531" lon="0.144062">
        <ele>2405.8</ele>
        <time>2014-08-15T08:07:55Z</time>
      </trkpt>
      <trkpt lat="42.802521" lon="0.143949">
        <ele>2407.9</ele>
        <time>2014-08-15T08:08:16Z</time>
      </trkpt>
      <trkpt lat="42.802417" lon="0.143846">
        <ele>2412.4</ele>
        <time>2014-08-15T08:08:38Z</time>
      </trkpt>
      <trkpt lat="42.802357" lon="0.143736">
        <ele>2416.7</ele>
        <time>2014-08-15T08:09:04Z</time>
      </trkpt>
      <trkpt lat="42.802333" lon="0.143749">
        <ele>2422.5</ele>
        <time>2014-08-15T08:09:26Z</time>
      </trkpt>
      <trkpt lat="42.802307" lon="0.143656">
        <ele>2426.7</ele>
        <time>2014-08-15T08:09:43Z</time>
      </trkpt>
      <trkpt lat="42.802226" lon="0.143535">
        <ele>2429.9</ele>
        <time>2014-08-15T08:10:06Z</time>
      </trkpt>
      <trkpt lat="42.802166" lon="0.143446">
        <ele>2433.0</ele>
        <time>2014-08-15T08:10:28Z</time>
      </trkpt>
      <trkpt lat="42.802101" lon="0.143419">
        <ele>2438.2</ele>
        <time>2014-08-15T08:10:50Z</time>
      </trkpt>
      <trkpt lat="42.802062" lon="0.143533">
        <ele>2443.7</ele>
        <time>2014-08-15T08:11:11Z</time>
      </trkpt>
      <trkpt lat="42.802018" lon="0.143618">
        <ele>2449.3</ele>
        <time>2014-08-15T08:11:35Z</time>
      </trkpt>
      <trkpt lat="42.801973" lon="0.143699">
        <ele>2455.3</ele>
        <time>2014-08-15T08:11:59Z</time>
      </trkpt>
      <trkpt lat="42.801980" lon="0.143772">
        <ele>2458.8</ele>
        <time>2014-08-15T08:12:25Z</time>
      </trkpt>
      <trkpt lat="42.801891" lon="0.143857">
        <ele>2462.6</ele>
        <time>2014-08-15T08:12:49Z</time>
      </trkpt>
      <trkpt lat="42.801842" lon="0.143954">
        <ele>2466.4</ele>
        <time>2014-08-15T08:13:05Z</time>
      </trkpt>
      <trkpt lat="42.801879" lon="0.144043">
        <ele>2469.7</ele>
        <time>2014-08-15T08:13:20Z</time>
      </trkpt>
      <trkpt lat="42.801890" lon="0.144169">
        <ele>2470.6</ele>
        <time>2014-08-15T08:13:32Z</time>
      </trkpt>
      <trkpt lat="42.801873" lon="0.144309">
        <ele>2470.2</ele>
        <time>2014-08-15T08:13:43Z</time>
      </trkpt>
      <trkpt lat="42.801819" lon="0.144399">
        <ele>2477.9</ele>
        <time>2014-08-15T08:21:38Z</time>
      </trkpt>
      <trkpt lat="42.801700" lon="0.144441">
        <ele>2479.6</ele>
        <time>2014-08-15T08:22:16Z</time>
      </trkpt>
      <trkpt lat="42.801657" lon="0.144446">
        <ele>2479.2</ele>
        <time>2014-08-15T08:24:35Z</time>
      </trkpt>
      <trkpt lat="42.801550" lon="0.144469">
        <ele>2479.8</ele>
        <time>2014-08-15T08:24:49Z</time>
      </trkpt>
      <trkpt lat="42.801451" lon="0.144517">
        <ele>2482.0</ele>
        <time>2014-08-15T08:25:03Z</time>
      </trkpt>
      <trkpt lat="42.801353" lon="0.144550">
        <ele>2484.4</ele>
        <time>2014-08-15T08:25:18Z</time>
      </trkpt>
      <trkpt lat="42.801292" lon="0.144631">
        <ele>2487.2</ele>
        <time>2014-08-15T08:25:35Z</time>
      </trkpt>
      <trkpt lat="42.801246" lon="0.144647">
        <ele>2490.4</ele>
        <time>2014-08-15T08:25:59Z</time>
      </trkpt>
      <trkpt lat="42.801183" lon="0.144666">
        <ele>2491.7</ele>
        <time>2014-08-15T08:26:22Z</time>
      </trkpt>
      <trkpt lat="42.801074" lon="0.144663">
        <ele>2494.6</ele>
        <time>2014-08-15T08:26:39Z</time>
      </trkpt>
      <trkpt lat="42.800968" lon="0.144695">
        <ele>2497.7</ele>
        <time>2014-08-15T08:26:56Z</time>
      </trkpt>
      <trkpt lat="42.800892" lon="0.144750">
        <ele>2500.5</ele>
        <time>2014-08-15T08:27:14Z</time>
      </trkpt>
      <trkpt lat="42.800783" lon="0.144789">
        <ele>2504.4</ele>
        <time>2014-08-15T08:27:33Z</time>
      </trkpt>
      <trkpt lat="42.800670" lon="0.144806">
        <ele>2509.4</ele>
        <time>2014-08-15T08:27:57Z</time>
      </trkpt>
      <trkpt lat="42.800591" lon="0.144859">
        <ele>2513.9</ele>
        <time>2014-08-15T08:28:23Z</time>
      </trkpt>
      <trkpt lat="42.800527" lon="0.144893">
        <ele>2517.7</ele>
        <time>2014-08-15T08:28:45Z</time>
      </trkpt>
      <trkpt lat="42.800480" lon="0.144999">
        <ele>2522.0</ele>
        <time>2014-08-15T08:29:06Z</time>
      </trkpt>
      <trkpt lat="42.800453" lon="0.145089">
        <ele>2526.4</ele>
        <time>2014-08-15T08:29:28Z</time>
      </trkpt>
      <trkpt lat="42.800465" lon="0.145049">
        <ele>2528.6</ele>
        <time>2014-08-15T08:29:52Z</time>
      </trkpt>
      <trkpt lat="42.800441" lon="0.145126">
        <ele>2529.3</ele>
        <time>2014-08-15T08:30:20Z</time>
      </trkpt>
      <trkpt lat="42.800394" lon="0.145159">
        <ele>2533.1</ele>
        <time>2014-08-15T08:30:46Z</time>
      </trkpt>
      <trkpt lat="42.800359" lon="0.145256">
        <ele>2536.9</ele>
        <time>2014-08-15T08:31:06Z</time>
      </trkpt>
      <trkpt lat="42.800277" lon="0.145257">
        <ele>2539.3</ele>
        <time>2014-08-15T08:31:28Z</time>
      </trkpt>
      <trkpt lat="42.800227" lon="0.145366">
        <ele>2543.5</ele>
        <time>2014-08-15T08:31:51Z</time>
      </trkpt>
      <trkpt lat="42.800135" lon="0.145370">
        <ele>2547.4</ele>
        <time>2014-08-15T08:32:15Z</time>
      </trkpt>
      <trkpt lat="42.800084" lon="0.145372">
        <ele>2550.5</ele>
        <time>2014-08-15T08:32:36Z</time>
      </trkpt>
      <trkpt lat="42.800019" lon="0.145446">
        <ele>2552.5</ele>
        <time>2014-08-15T08:32:58Z</time>
      </trkpt>
      <trkpt lat="42.800021" lon="0.145480">
        <ele>2555.6</ele>
        <time>2014-08-15T08:33:41Z</time>
      </trkpt>
      <trkpt lat="42.799980" lon="0.145539">
        <ele>2564.2</ele>
        <time>2014-08-15T08:36:38Z</time>
      </trkpt>
      <trkpt lat="42.799965" lon="0.145585">
        <ele>2567.1</ele>
        <time>2014-08-15T08:37:34Z</time>
      </trkpt>
      <trkpt lat="42.799933" lon="0.145624">
        <ele>2570.4</ele>
        <time>2014-08-15T08:38:00Z</time>
      </trkpt>
      <trkpt lat="42.799879" lon="0.145658">
        <ele>2574.8</ele>
        <time>2014-08-15T08:38:36Z</time>
      </trkpt>
      <trkpt lat="42.799870" lon="0.145771">
        <ele>2580.8</ele>
        <time>2014-08-15T08:39:09Z</time>
      </trkpt>
      <trkpt lat="42.799832" lon="0.145840">
        <ele>2585.8</ele>
        <time>2014-08-15T08:39:41Z</time>
      </trkpt>
      <trkpt lat="42.799781" lon="0.145854">
        <ele>2590.0</ele>
        <time>2014-08-15T08:40:10Z</time>
      </trkpt>
      <trkpt lat="42.799670" lon="0.145961">
        <ele>2598.7</ele>
        <time>2014-08-15T08:43:38Z</time>
      </trkpt>
      <trkpt lat="42.799654" lon="0.146088">
        <ele>2601.5</ele>
        <time>2014-08-15T08:43:55Z</time>
      </trkpt>
      <trkpt lat="42.799600" lon="0.146226">
        <ele>2604.5</ele>
        <time>2014-08-15T08:44:13Z</time>
      </trkpt>
      <trkpt lat="42.799547" lon="0.146320">
        <ele>2608.8</ele>
        <time>2014-08-15T08:44:32Z</time>
      </trkpt>
      <trkpt lat="42.799458" lon="0.146412">
        <ele>2615.1</ele>
        <time>2014-08-15T08:45:11Z</time>
      </trkpt>
      <trkpt lat="42.799359" lon="0.146401">
        <ele>2617.3</ele>
        <time>2014-08-15T08:46:14Z</time>
      </trkpt>
      <trkpt lat="42.799336" lon="0.146515">
        <ele>2621.2</ele>
        <time>2014-08-15T08:46:39Z</time>
      </trkpt>
      <trkpt lat="42.799300" lon="0.146628">
        <ele>2624.0</ele>
        <time>2014-08-15T08:47:04Z</time>
      </trkpt>
      <trkpt lat="42.799249" lon="0.146751">
        <ele>2626.4</ele>
        <time>2014-08-15T08:47:24Z</time>
      </trkpt>
      <trkpt lat="42.799211" lon="0.146874">
        <ele>2625.4</ele>
        <time>2014-08-15T08:47:39Z</time>
      </trkpt>
      <trkpt lat="42.799170" lon="0.147005">
        <ele>2624.4</ele>
        <time>2014-08-15T08:47:51Z</time>
      </trkpt>
      <trkpt lat="42.799122" lon="0.147133">
        <ele>2624.3</ele>
        <time>2014-08-15T08:48:03Z</time>
      </trkpt>
      <trkpt lat="42.799040" lon="0.147251">
        <ele>2623.8</ele>
        <time>2014-08-15T08:48:17Z</time>
      </trkpt>
      <trkpt lat="42.798946" lon="0.147345">
        <ele>2623.8</ele>
        <time>2014-08-15T08:48:31Z</time>
      </trkpt>
      <trkpt lat="42.798912" lon="0.147462">
        <ele>2625.4</ele>
        <time>2014-08-15T08:48:48Z</time>
      </trkpt>
      <trkpt lat="42.798851" lon="0.147517">
        <ele>2629.1</ele>
        <time>2014-08-15T08:49:15Z</time>
      </trkpt>
      <trkpt lat="42.798771" lon="0.147568">
        <ele>2633.3</ele>
        <time>2014-08-15T08:49:41Z</time>
      </trkpt>
      <trkpt lat="42.798732" lon="0.147599">
        <ele>2638.2</ele>
        <time>2014-08-15T08:50:05Z</time>
      </trkpt>
      <trkpt lat="42.798679" lon="0.147674">
        <ele>2642.3</ele>
        <time>2014-08-15T08:50:28Z</time>
      </trkpt>
      <trkpt lat="42.798623" lon="0.147748">
        <ele>2646.1</ele>
        <time>2014-08-15T08:50:55Z</time>
      </trkpt>
      <trkpt lat="42.798552" lon="0.147761">
        <ele>2649.9</ele>
        <time>2014-08-15T08:51:21Z</time>
      </trkpt>
      <trkpt lat="42.798508" lon="0.147822">
        <ele>2653.8</ele>
        <time>2014-08-15T08:51:48Z</time>
      </trkpt>
      <trkpt lat="42.798459" lon="0.147861">
        <ele>2657.2</ele>
        <time>2014-08-15T08:52:11Z</time>
      </trkpt>
      <trkpt lat="42.798408" lon="0.147876">
        <ele>2659.9</ele>
        <time>2014-08-15T08:52:38Z</time>
      </trkpt>
      <trkpt lat="42.798360" lon="0.147924">
        <ele>2681.9</ele>
        <time>2014-08-15T09:15:45Z</time>
      </trkpt>
      <trkpt lat="42.798391" lon="0.148047">
        <ele>2684.6</ele>
        <time>2014-08-15T09:16:07Z</time>
      </trkpt>
      <trkpt lat="42.798465" lon="0.148127">
        <ele>2686.8</ele>
        <time>2014-08-15T09:16:35Z</time>
      </trkpt>
      <trkpt lat="42.798476" lon="0.148214">
        <ele>2690.7</ele>
        <time>2014-08-15T09:17:03Z</time>
      </trkpt>
      <trkpt lat="42.798450" lon="0.148320">
        <ele>2695.0</ele>
        <time>2014-08-15T09:17:30Z</time>
      </trkpt>
      <trkpt lat="42.798452" lon="0.148386">
        <ele>2696.3</ele>
        <time>2014-08-15T09:18:13Z</time>
      </trkpt>
      <trkpt lat="42.798450" lon="0.148441">
        <ele>2698.1</ele>
        <time>2014-08-15T09:19:03Z</time>
      </trkpt>
      <trkpt lat="42.798516" lon="0.148529">
        <ele>2700.8</ele>
        <time>2014-08-15T09:19:31Z</time>
      </trkpt>
      <trkpt lat="42.798537" lon="0.148639">
        <ele>2701.9</ele>
        <time>2014-08-15T09:19:55Z</time>
      </trkpt>
      <trkpt lat="42.798563" lon="0.148767">
        <ele>2706.5</ele>
        <time>2014-08-15T09:20:31Z</time>
      </trkpt>
      <trkpt lat="42.798581" lon="0.148815">
        <ele>2711.4</ele>
        <time>2014-08-15T09:21:41Z</time>
      </trkpt>
      <trkpt lat="42.798627" lon="0.148910">
        <ele>2718.4</ele>
        <time>2014-08-15T09:22:34Z</time>
      </trkpt>
      <trkpt lat="42.798634" lon="0.148991">
        <ele>2722.5</ele>
        <time>2014-08-15T09:23:43Z</time>
      </trkpt>
      <trkpt lat="42.798688" lon="0.149109">
        <ele>2725.6</ele>
        <time>2014-08-15T09:24:13Z</time>
      </trkpt>
      <trkpt lat="42.798758" lon="0.149139">
        <ele>2730.8</ele>
        <time>2014-08-15T09:25:00Z</time>
      </trkpt>
      <trkpt lat="42.798799" lon="0.149147">
        <ele>2736.4</ele>
        <time>2014-08-15T09:26:18Z</time>
      </trkpt>
      <trkpt lat="42.798801" lon="0.149145">
        <ele>2739.3</ele>
        <time>2014-08-15T09:27:08Z</time>
      </trkpt>
      <trkpt lat="42.798859" lon="0.149188">
        <ele>2742.2</ele>
        <time>2014-08-15T09:27:53Z</time>
      </trkpt>
      <trkpt lat="42.798870" lon="0.149196">
        <ele>2747.3</ele>
        <time>2014-08-15T09:29:20Z</time>
      </trkpt>
      <trkpt lat="42.798884" lon="0.149288">
        <ele>2749.9</ele>
        <time>2014-08-15T09:30:15Z</time>
      </trkpt>
      <trkpt lat="42.798894" lon="0.149340">
        <ele>2752.1</ele>
        <time>2014-08-15T09:32:23Z</time>
      </trkpt>
      <trkpt lat="42.798918" lon="0.149381">
        <ele>2762.7</ele>
        <time>2014-08-15T09:36:51Z</time>
      </trkpt>
      <trkpt lat="42.798924" lon="0.149402">
        <ele>2763.7</ele>
        <time>2014-08-15T09:37:30Z</time>
      </trkpt>
      <trkpt lat="42.798943" lon="0.149443">
        <ele>2766.7</ele>
        <time>2014-08-15T09:38:27Z</time>
      </trkpt>
      <trkpt lat="42.798957" lon="0.149473">
        <ele>2769.9</ele>
        <time>2014-08-15T09:39:17Z</time>
      </trkpt>
      <trkpt lat="42.798959" lon="0.149487">
        <ele>2768.9</ele>
        <time>2014-08-15T09:40:34Z</time>
      </trkpt>
      <trkpt lat="42.798979" lon="0.149566">
        <ele>2770.2</ele>
        <time>2014-08-15T09:41:32Z</time>
      </trkpt>
      <trkpt lat="42.798957" lon="0.149610">
        <ele>2776.7</ele>
        <time>2014-08-15T09:42:26Z</time>
      </trkpt>
      <trkpt lat="42.798976" lon="0.149699">
        <ele>2779.6</ele>
        <time>2014-08-15T09:45:12Z</time>
      </trkpt>
      <trkpt lat="42.799054" lon="0.149779">
        <ele>2785.4</ele>
        <time>2014-08-15T09:46:41Z</time>
      </trkpt>
      <trkpt lat="42.799099" lon="0.149890">
        <ele>2788.3</ele>
        <time>2014-08-15T09:47:32Z</time>
      </trkpt>
      <trkpt lat="42.799147" lon="0.149938">
        <ele>2789.4</ele>
        <time>2014-08-15T09:49:39Z</time>
      </trkpt>
      <trkpt lat="42.799212" lon="0.149982">
        <ele>2791.9</ele>
        <time>2014-08-15T09:50:08Z</time>
      </trkpt>
      <trkpt lat="42.799304" lon="0.149994">
        <ele>2803.1</ele>
        <time>2014-08-15T09:54:43Z</time>
      </trkpt>
      <trkpt lat="42.799326" lon="0.150014">
        <ele>2805.6</ele>
        <time>2014-08-15T09:55:18Z</time>
      </trkpt>
      <trkpt lat="42.799370" lon="0.150069">
        <ele>2811.5</ele>
        <time>2014-08-15T09:57:29Z</time>
      </trkpt>
      <trkpt lat="42.799416" lon="0.150175">
        <ele>2818.1</ele>
        <time>2014-08-15T09:58:19Z</time>
      </trkpt>
      <trkpt lat="42.799407" lon="0.150204">
        <ele>2820.1</ele>
        <time>2014-08-15T10:03:31Z</time>
      </trkpt>
      <trkpt lat="42.799425" lon="0.150339">
        <ele>2820.5</ele>
        <time>2014-08-15T10:04:05Z</time>
      </trkpt>
      <trkpt lat="42.799466" lon="0.150389">
        <ele>2823.6</ele>
        <time>2014-08-15T10:05:31Z</time>
      </trkpt>
      <trkpt lat="42.799524" lon="0.150418">
        <ele>2828.4</ele>
        <time>2014-08-15T10:06:17Z</time>
      </trkpt>
      <trkpt lat="42.799538" lon="0.150497">
        <ele>2832.5</ele>
        <time>2014-08-15T10:09:06Z</time>
      </trkpt>
      <trkpt lat="42.799579" lon="0.150527">
        <ele>2838.6</ele>
        <time>2014-08-15T10:10:57Z</time>
      </trkpt>
      <trkpt lat="42.799612" lon="0.150595">
        <ele>2847.5</ele>
        <time>2014-08-15T10:12:35Z</time>
      </trkpt>
      <trkpt lat="42.799649" lon="0.150699">
        <ele>2850.6</ele>
        <time>2014-08-15T10:13:40Z</time>
      </trkpt>
      <trkpt lat="42.799678" lon="0.150805">
        <ele>2851.7</ele>
        <time>2014-08-15T10:13:54Z</time>
      </trkpt>
      <trkpt lat="42.799699" lon="0.150925">
        <ele>2853.6</ele>
        <time>2014-08-15T10:14:13Z</time>
      </trkpt>
      <trkpt lat="42.799718" lon="0.151033">
        <ele>2856.8</ele>
        <time>2014-08-15T10:14:31Z</time>
      </trkpt>
      <trkpt lat="42.799735" lon="0.151082">
        <ele>2857.9</ele>
        <time>2014-08-15T10:15:28Z</time>
      </trkpt>
      <trkpt lat="42.799770" lon="0.151226">
        <ele>2859.5</ele>
        <time>2014-08-15T10:15:46Z</time>
      </trkpt>
      <trkpt lat="42.799823" lon="0.151321">
        <ele>2862.2</ele>
        <time>2014-08-15T10:16:21Z</time>
      </trkpt>
      <trkpt lat="42.799876" lon="0.151428">
        <ele>2862.9</ele>
        <time>2014-08-15T10:16:36Z</time>
      </trkpt>
      <trkpt lat="42.799923" lon="0.151536">
        <ele>2864.9</ele>
        <time>2014-08-15T10:16:49Z</time>
      </trkpt>
      <trkpt lat="42.799990" lon="0.151593">
        <ele>2865.6</ele>
        <time>2014-08-15T10:17:21Z</time>
      </trkpt>
      <trkpt lat="42.800073" lon="0.151663">
        <ele>2864.6</ele>
        <time>2014-08-15T10:17:37Z</time>
      </trkpt>
      <trkpt lat="42.800123" lon="0.151763">
        <ele>2864.1</ele>
        <time>2014-08-15T10:17:50Z</time>
      </trkpt>
      <trkpt lat="42.800120" lon="0.151761">
        <ele>2864.3</ele>
        <time>2014-08-15T10:21:26Z</time>
      </trkpt>
      <trkpt lat="42.800131" lon="0.151809">
        <ele>2864.3</ele>
        <time>2014-08-15T10:23:50Z</time>
      </trkpt>
      <trkpt lat="42.800164" lon="0.151916">
        <ele>2868.1</ele>
        <time>2014-08-15T10:24:33Z</time>
      </trkpt>
      <trkpt lat="42.800202" lon="0.152006">
        <ele>2870.6</ele>
        <time>2014-08-15T10:25:15Z</time>
      </trkpt>
      <trkpt lat="42.800250" lon="0.152071">
        <ele>2875.0</ele>
        <time>2014-08-15T10:25:38Z</time>
      </trkpt>
      <trkpt lat="42.800312" lon="0.152114">
        <ele>2880.5</ele>
        <time>2014-08-15T10:26:27Z</time>
      </trkpt>
      <trkpt lat="42.800324" lon="0.152235">
        <ele>2884.2</ele>
        <time>2014-08-15T10:26:48Z</time>
      </trkpt>
      <trkpt lat="42.800320" lon="0.152356">
        <ele>2887.1</ele>
        <time>2014-08-15T10:27:07Z</time>
      </trkpt>
      <trkpt lat="42.800294" lon="0.152435">
        <ele>2890.5</ele>
        <time>2014-08-15T10:28:07Z</time>
      </trkpt>
      <trkpt lat="42.800314" lon="0.152553">
        <ele>2890.5</ele>
        <time>2014-08-15T10:28:27Z</time>
      </trkpt>
      <trkpt lat="42.800334" lon="0.152621">
        <ele>2890.2</ele>
        <time>2014-08-15T10:29:40Z</time>
      </trkpt>
      <trkpt lat="42.800383" lon="0.152701">
        <ele>2893.9</ele>
        <time>2014-08-15T10:30:08Z</time>
      </trkpt>
      <trkpt lat="42.800383" lon="0.152835">
        <ele>2895.1</ele>
        <time>2014-08-15T10:30:32Z</time>
      </trkpt>
      <trkpt lat="42.800407" lon="0.152951">
        <ele>2898.1</ele>
        <time>2014-08-15T10:30:50Z</time>
      </trkpt>
      <trkpt lat="42.800429" lon="0.153027">
        <ele>2899.6</ele>
        <time>2014-08-15T10:31:50Z</time>
      </trkpt>
      <trkpt lat="42.800462" lon="0.153145">
        <ele>2901.6</ele>
        <time>2014-08-15T10:32:06Z</time>
      </trkpt>
      <trkpt lat="42.800525" lon="0.153221">
        <ele>2903.2</ele>
        <time>2014-08-15T10:32:21Z</time>
      </trkpt>
      <trkpt lat="42.800606" lon="0.153234">
        <ele>2903.6</ele>
        <time>2014-08-15T10:32:59Z</time>
      </trkpt>
      <trkpt lat="42.800694" lon="0.153273">
        <ele>2903.2</ele>
        <time>2014-08-15T10:33:16Z</time>
      </trkpt>
      <trkpt lat="42.800768" lon="0.153267">
        <ele>2904.0</ele>
        <time>2014-08-15T10:33:42Z</time>
      </trkpt>
      <trkpt lat="42.800866" lon="0.153286">
        <ele>2904.9</ele>
        <time>2014-08-15T10:34:08Z</time>
      </trkpt>
      <trkpt lat="42.800931" lon="0.153373">
        <ele>2903.5</ele>
        <time>2014-08-15T10:34:27Z</time>
      </trkpt>
      <trkpt lat="42.800966" lon="0.153482">
        <ele>2899.2</ele>
        <time>2014-08-15T10:35:25Z</time>
      </trkpt>
      <trkpt lat="42.800986" lon="0.153577">
        <ele>2896.7</ele>
        <time>2014-08-15T10:35:54Z</time>
      </trkpt>
      <trkpt lat="42.801041" lon="0.153690">
        <ele>2892.8</ele>
        <time>2014-08-15T10:36:58Z</time>
      </trkpt>
      <trkpt lat="42.801091" lon="0.153717">
        <ele>2888.1</ele>
        <time>2014-08-15T10:37:36Z</time>
      </trkpt>
      <trkpt lat="42.801102" lon="0.153824">
        <ele>2885.4</ele>
        <time>2014-08-15T10:38:09Z</time>
      </trkpt>
      <trkpt lat="42.801170" lon="0.153877">
        <ele>2883.4</ele>
        <time>2014-08-15T10:39:46Z</time>
      </trkpt>
      <trkpt lat="42.801206" lon="0.153947">
        <ele>2880.3</ele>
        <time>2014-08-15T10:40:42Z</time>
      </trkpt>
      <trkpt lat="42.801246" lon="0.154018">
        <ele>2874.5</ele>
        <time>2014-08-15T10:41:34Z</time>
      </trkpt>
      <trkpt lat="42.801282" lon="0.154093">
        <ele>2869.3</ele>
        <time>2014-08-15T10:42:12Z</time>
      </trkpt>
      <trkpt lat="42.801358" lon="0.154145">
        <ele>2866.6</ele>
        <time>2014-08-15T10:42:45Z</time>
      </trkpt>
      <trkpt lat="42.801427" lon="0.154241">
        <ele>2870.3</ele>
        <time>2014-08-15T10:43:10Z</time>
      </trkpt>
      <trkpt lat="42.801474" lon="0.154354">
        <ele>2870.6</ele>
        <time>2014-08-15T10:44:01Z</time>
      </trkpt>
      <trkpt lat="42.801543" lon="0.154400">
        <ele>2866.7</ele>
        <time>2014-08-15T10:44:30Z</time>
      </trkpt>
      <trkpt lat="42.801546" lon="0.154455">
        <ele>2866.1</ele>
        <time>2014-08-15T10:46:47Z</time>
      </trkpt>
      <trkpt lat="42.801558" lon="0.154586">
        <ele>2862.9</ele>
        <time>2014-08-15T10:47:14Z</time>
      </trkpt>
      <trkpt lat="42.801569" lon="0.154691">
        <ele>2859.0</ele>
        <time>2014-08-15T10:47:47Z</time>
      </trkpt>
      <trkpt lat="42.801570" lon="0.154810">
        <ele>2856.0</ele>
        <time>2014-08-15T10:48:10Z</time>
      </trkpt>
      <trkpt lat="42.801645" lon="0.154733">
        <ele>2856.1</ele>
        <time>2014-08-15T10:48:43Z</time>
      </trkpt>
      <trkpt lat="42.801681" lon="0.154637">
        <ele>2866.8</ele>
        <time>2014-08-15T10:51:35Z</time>
      </trkpt>
      <trkpt lat="42.801713" lon="0.154723">
        <ele>2869.5</ele>
        <time>2014-08-15T10:52:06Z</time>
      </trkpt>
      <trkpt lat="42.801738" lon="0.154705">
        <ele>2881.0</ele>
        <time>2014-08-15T10:55:54Z</time>
      </trkpt>
      <trkpt lat="42.801796" lon="0.154627">
        <ele>2885.8</ele>
        <time>2014-08-15T10:56:26Z</time>
      </trkpt>
      <trkpt lat="42.801842" lon="0.154607">
        <ele>2891.6</ele>
        <time>2014-08-15T10:57:52Z</time>
      </trkpt>
      <trkpt lat="42.801897" lon="0.154635">
        <ele>2899.0</ele>
        <time>2014-08-15T10:58:41Z</time>
      </trkpt>
      <trkpt lat="42.801965" lon="0.154646">
        <ele>2901.6</ele>
        <time>2014-08-15T10:59:43Z</time>
      </trkpt>
      <trkpt lat="42.801979" lon="0.154648">
        <ele>2909.5</ele>
        <time>2014-08-15T11:00:46Z</time>
      </trkpt>
      <trkpt lat="42.802050" lon="0.154629">
        <ele>2913.0</ele>
        <time>2014-08-15T11:01:16Z</time>
      </trkpt>
      <trkpt lat="42.802102" lon="0.154642">
        <ele>2916.9</ele>
        <time>2014-08-15T11:01:41Z</time>
      </trkpt>
      <trkpt lat="42.802128" lon="0.154670">
        <ele>2912.5</ele>
        <time>2014-08-15T12:20:41Z</time>
      </trkpt>
      <trkpt lat="42.802073" lon="0.154697">
        <ele>2913.2</ele>
        <time>2014-08-15T12:31:03Z</time>
      </trkpt>
      <trkpt lat="42.802024" lon="0.154729">
        <ele>2912.7</ele>
        <time>2014-08-15T12:33:04Z</time>
      </trkpt>
      <trkpt lat="42.801975" lon="0.154740">
        <ele>2907.9</ele>
        <time>2014-08-15T12:34:45Z</time>
      </trkpt>
      <trkpt lat="42.802023" lon="0.154816">
        <ele>2902.6</ele>
        <time>2014-08-15T12:35:15Z</time>
      </trkpt>
      <trkpt lat="42.802010" lon="0.154939">
        <ele>2894.7</ele>
        <time>2014-08-15T12:36:13Z</time>
      </trkpt>
      <trkpt lat="42.801984" lon="0.154968">
        <ele>2883.0</ele>
        <time>2014-08-15T12:39:42Z</time>
      </trkpt>
      <trkpt lat="42.801960" lon="0.154997">
        <ele>2879.4</ele>
        <time>2014-08-15T12:40:34Z</time>
      </trkpt>
      <trkpt lat="42.801930" lon="0.155048">
        <ele>2876.1</ele>
        <time>2014-08-15T12:41:00Z</time>
      </trkpt>
      <trkpt lat="42.801861" lon="0.155020">
        <ele>2871.6</ele>
        <time>2014-08-15T12:42:06Z</time>
      </trkpt>
      <trkpt lat="42.801804" lon="0.154957">
        <ele>2869.3</ele>
        <time>2014-08-15T12:42:46Z</time>
      </trkpt>
      <trkpt lat="42.801735" lon="0.154854">
        <ele>2869.2</ele>
        <time>2014-08-15T12:43:05Z</time>
      </trkpt>
      <trkpt lat="42.801670" lon="0.154819">
        <ele>2872.2</ele>
        <time>2014-08-15T12:43:43Z</time>
      </trkpt>
      <trkpt lat="42.801636" lon="0.154786">
        <ele>2869.6</ele>
        <time>2014-08-15T12:44:49Z</time>
      </trkpt>
      <trkpt lat="42.801641" lon="0.154753">
        <ele>2868.1</ele>
        <time>2014-08-15T12:46:19Z</time>
      </trkpt>
      <trkpt lat="42.801660" lon="0.154728">
        <ele>2864.3</ele>
        <time>2014-08-15T12:48:44Z</time>
      </trkpt>
      <trkpt lat="42.801651" lon="0.154705">
        <ele>2864.6</ele>
        <time>2014-08-15T12:49:11Z</time>
      </trkpt>
      <trkpt lat="42.801611" lon="0.154681">
        <ele>2864.9</ele>
        <time>2014-08-15T12:49:40Z</time>
      </trkpt>
      <trkpt lat="42.801581" lon="0.154642">
        <ele>2864.2</ele>
        <time>2014-08-15T12:50:11Z</time>
      </trkpt>
      <trkpt lat="42.801565" lon="0.154675">
        <ele>2856.7</ele>
        <time>2014-08-15T12:53:31Z</time>
      </trkpt>
      <trkpt lat="42.801551" lon="0.154701">
        <ele>2853.5</ele>
        <time>2014-08-15T12:54:28Z</time>
      </trkpt>
      <trkpt lat="42.801537" lon="0.154694">
        <ele>2851.0</ele>
        <time>2014-08-15T12:55:03Z</time>
      </trkpt>
      <trkpt lat="42.801546" lon="0.154594">
        <ele>2853.3</ele>
        <time>2014-08-15T12:56:24Z</time>
      </trkpt>
      <trkpt lat="42.801529" lon="0.154479">
        <ele>2858.3</ele>
        <time>2014-08-15T12:56:58Z</time>
      </trkpt>
      <trkpt lat="42.801538" lon="0.154448">
        <ele>2860.7</ele>
        <time>2014-08-15T12:59:46Z</time>
      </trkpt>
      <trkpt lat="42.801565" lon="0.154327">
        <ele>2858.8</ele>
        <time>2014-08-15T13:00:04Z</time>
      </trkpt>
      <trkpt lat="42.801610" lon="0.154245">
        <ele>2854.9</ele>
        <time>2014-08-15T13:00:22Z</time>
      </trkpt>
      <trkpt lat="42.801690" lon="0.154196">
        <ele>2848.7</ele>
        <time>2014-08-15T13:00:56Z</time>
      </trkpt>
      <trkpt lat="42.801786" lon="0.154104">
        <ele>2845.3</ele>
        <time>2014-08-15T13:01:14Z</time>
      </trkpt>
      <trkpt lat="42.801787" lon="0.154061">
        <ele>2841.0</ele>
        <time>2014-08-15T13:01:46Z</time>
      </trkpt>
      <trkpt lat="42.801829" lon="0.154022">
        <ele>2838.4</ele>
        <time>2014-08-15T13:02:14Z</time>
      </trkpt>
      <trkpt lat="42.801869" lon="0.153949">
        <ele>2833.6</ele>
        <time>2014-08-15T13:03:07Z</time>
      </trkpt>
      <trkpt lat="42.801935" lon="0.153923">
        <ele>2830.3</ele>
        <time>2014-08-15T13:03:52Z</time>
      </trkpt>
      <trkpt lat="42.801963" lon="0.153861">
        <ele>2825.8</ele>
        <time>2014-08-15T13:04:23Z</time>
      </trkpt>
      <trkpt lat="42.802047" lon="0.153894">
        <ele>2820.4</ele>
        <time>2014-08-15T13:05:05Z</time>
      </trkpt>
      <trkpt lat="42.802109" lon="0.153818">
        <ele>2813.6</ele>
        <time>2014-08-15T13:08:47Z</time>
      </trkpt>
      <trkpt lat="42.802149" lon="0.153723">
        <ele>2811.3</ele>
        <time>2014-08-15T13:09:31Z</time>
      </trkpt>
      <trkpt lat="42.802169" lon="0.153671">
        <ele>2804.8</ele>
        <time>2014-08-15T13:12:43Z</time>
      </trkpt>
      <trkpt lat="42.802224" lon="0.153644">
        <ele>2804.2</ele>
        <time>2014-08-15T13:13:11Z</time>
      </trkpt>
      <trkpt lat="42.802261" lon="0.153612">
        <ele>2802.3</ele>
        <time>2014-08-15T13:14:25Z</time>
      </trkpt>
      <trkpt lat="42.802341" lon="0.153504">
        <ele>2793.8</ele>
        <time>2014-08-15T13:16:12Z</time>
      </trkpt>
      <trkpt lat="42.802414" lon="0.153388">
        <ele>2790.5</ele>
        <time>2014-08-15T13:16:28Z</time>
      </trkpt>
      <trkpt lat="42.802463" lon="0.153352">
        <ele>2783.2</ele>
        <time>2014-08-15T13:17:22Z</time>
      </trkpt>
      <trkpt lat="42.802527" lon="0.153250">
        <ele>2779.0</ele>
        <time>2014-08-15T13:18:03Z</time>
      </trkpt>
      <trkpt lat="42.802582" lon="0.153170">
        <ele>2773.2</ele>
        <time>2014-08-15T13:18:33Z</time>
      </trkpt>
      <trkpt lat="42.802623" lon="0.153118">
        <ele>2763.9</ele>
        <time>2014-08-15T13:20:00Z</time>
      </trkpt>
      <trkpt lat="42.802659" lon="0.153098">
        <ele>2758.7</ele>
        <time>2014-08-15T13:20:58Z</time>
      </trkpt>
      <trkpt lat="42.802705" lon="0.153039">
        <ele>2751.4</ele>
        <time>2014-08-15T13:22:36Z</time>
      </trkpt>
      <trkpt lat="42.802737" lon="0.153083">
        <ele>2751.4</ele>
        <time>2014-08-15T13:23:13Z</time>
      </trkpt>
      <trkpt lat="42.802760" lon="0.153108">
        <ele>2751.2</ele>
        <time>2014-08-15T13:24:13Z</time>
      </trkpt>
      <trkpt lat="42.802841" lon="0.153127">
        <ele>2749.5</ele>
        <time>2014-08-15T13:24:33Z</time>
      </trkpt>
      <trkpt lat="42.802903" lon="0.153075">
        <ele>2746.9</ele>
        <time>2014-08-15T13:24:51Z</time>
      </trkpt>
      <trkpt lat="42.802917" lon="0.153000">
        <ele>2743.5</ele>
        <time>2014-08-15T13:25:15Z</time>
      </trkpt>
      <trkpt lat="42.802930" lon="0.152952">
        <ele>2740.3</ele>
        <time>2014-08-15T13:25:40Z</time>
      </trkpt>
      <trkpt lat="42.802931" lon="0.152953">
        <ele>2736.3</ele>
        <time>2014-08-15T13:26:18Z</time>
      </trkpt>
      <trkpt lat="42.802938" lon="0.152891">
        <ele>2734.0</ele>
        <time>2014-08-15T13:26:49Z</time>
      </trkpt>
      <trkpt lat="42.802971" lon="0.152820">
        <ele>2730.0</ele>
        <time>2014-08-15T13:27:21Z</time>
      </trkpt>
      <trkpt lat="42.803029" lon="0.152765">
        <ele>2727.4</ele>
        <time>2014-08-15T13:27:43Z</time>
      </trkpt>
      <trkpt lat="42.803026" lon="0.152722">
        <ele>2722.4</ele>
        <time>2014-08-15T13:28:13Z</time>
      </trkpt>
      <trkpt lat="42.803067" lon="0.152649">
        <ele>2717.7</ele>
        <time>2014-08-15T13:28:35Z</time>
      </trkpt>
      <trkpt lat="42.803071" lon="0.152620">
        <ele>2712.6</ele>
        <time>2014-08-15T13:29:09Z</time>
      </trkpt>
      <trkpt lat="42.803085" lon="0.152500">
        <ele>2709.0</ele>
        <time>2014-08-15T13:29:34Z</time>
      </trkpt>
      <trkpt lat="42.803138" lon="0.152421">
        <ele>2704.5</ele>
        <time>2014-08-15T13:29:56Z</time>
      </trkpt>
      <trkpt lat="42.803178" lon="0.152372">
        <ele>2700.9</ele>
        <time>2014-08-15T13:30:41Z</time>
      </trkpt>
      <trkpt lat="42.803189" lon="0.152325">
        <ele>2696.6</ele>
        <time>2014-08-15T13:31:02Z</time>
      </trkpt>
      <trkpt lat="42.803205" lon="0.152284">
        <ele>2691.5</ele>
        <time>2014-08-15T13:31:28Z</time>
      </trkpt>
      <trkpt lat="42.803227" lon="0.152161">
        <ele>2689.3</ele>
        <time>2014-08-15T13:31:44Z</time>
      </trkpt>
      <trkpt lat="42.803263" lon="0.152148">
        <ele>2685.8</ele>
        <time>2014-08-15T13:32:05Z</time>
      </trkpt>
      <trkpt lat="42.803310" lon="0.152129">
        <ele>2680.9</ele>
        <time>2014-08-15T13:32:29Z</time>
      </trkpt>
      <trkpt lat="42.803310" lon="0.152037">
        <ele>2677.0</ele>
        <time>2014-08-15T13:32:54Z</time>
      </trkpt>
      <trkpt lat="42.803354" lon="0.151945">
        <ele>2672.7</ele>
        <time>2014-08-15T13:33:05Z</time>
      </trkpt>
      <trkpt lat="42.803439" lon="0.151887">
        <ele>2667.5</ele>
        <time>2014-08-15T13:33:16Z</time>
      </trkpt>
      <trkpt lat="42.803477" lon="0.151800">
        <ele>2661.3</ele>
        <time>2014-08-15T13:33:31Z</time>
      </trkpt>
      <trkpt lat="42.803552" lon="0.151758">
        <ele>2656.7</ele>
        <time>2014-08-15T13:33:44Z</time>
      </trkpt>
      <trkpt lat="42.803606" lon="0.151690">
        <ele>2651.8</ele>
        <time>2014-08-15T13:33:59Z</time>
      </trkpt>
      <trkpt lat="42.803669" lon="0.151667">
        <ele>2647.4</ele>
        <time>2014-08-15T13:34:11Z</time>
      </trkpt>
      <trkpt lat="42.803748" lon="0.151666">
        <ele>2644.0</ele>
        <time>2014-08-15T13:34:30Z</time>
      </trkpt>
      <trkpt lat="42.803839" lon="0.151601">
        <ele>2641.2</ele>
        <time>2014-08-15T13:34:45Z</time>
      </trkpt>
      <trkpt lat="42.803898" lon="0.151491">
        <ele>2636.8</ele>
        <time>2014-08-15T13:34:58Z</time>
      </trkpt>
      <trkpt lat="42.803941" lon="0.151417">
        <ele>2630.8</ele>
        <time>2014-08-15T13:35:17Z</time>
      </trkpt>
      <trkpt lat="42.803950" lon="0.151306">
        <ele>2625.4</ele>
        <time>2014-08-15T13:35:37Z</time>
      </trkpt>
      <trkpt lat="42.803970" lon="0.151165">
        <ele>2620.7</ele>
        <time>2014-08-15T13:35:53Z</time>
      </trkpt>
      <trkpt lat="42.804027" lon="0.151074">
        <ele>2616.6</ele>
        <time>2014-08-15T13:36:03Z</time>
      </trkpt>
      <trkpt lat="42.804030" lon="0.151021">
        <ele>2610.9</ele>
        <time>2014-08-15T13:36:22Z</time>
      </trkpt>
      <trkpt lat="42.804026" lon="0.150998">
        <ele>2605.9</ele>
        <time>2014-08-15T13:36:52Z</time>
      </trkpt>
      <trkpt lat="42.804091" lon="0.150940">
        <ele>2604.9</ele>
        <time>2014-08-15T13:37:09Z</time>
      </trkpt>
      <trkpt lat="42.804181" lon="0.150942">
        <ele>2600.8</ele>
        <time>2014-08-15T13:37:23Z</time>
      </trkpt>
      <trkpt lat="42.804205" lon="0.150823">
        <ele>2596.1</ele>
        <time>2014-08-15T13:37:37Z</time>
      </trkpt>
      <trkpt lat="42.804288" lon="0.150768">
        <ele>2589.7</ele>
        <time>2014-08-15T13:37:52Z</time>
      </trkpt>
      <trkpt lat="42.804293" lon="0.150670">
        <ele>2585.2</ele>
        <time>2014-08-15T13:38:03Z</time>
      </trkpt>
      <trkpt lat="42.804307" lon="0.150547">
        <ele>2580.4</ele>
        <time>2014-08-15T13:38:12Z</time>
      </trkpt>
      <trkpt lat="42.804409" lon="0.150524">
        <ele>2574.4</ele>
        <time>2014-08-15T13:38:24Z</time>
      </trkpt>
      <trkpt lat="42.804500" lon="0.150486">
        <ele>2566.2</ele>
        <time>2014-08-15T13:38:47Z</time>
      </trkpt>
      <trkpt lat="42.804528" lon="0.150396">
        <ele>2564.2</ele>
        <time>2014-08-15T13:39:53Z</time>
      </trkpt>
      <trkpt lat="42.804585" lon="0.150395">
        <ele>2561.6</ele>
        <time>2014-08-15T13:40:20Z</time>
      </trkpt>
      <trkpt lat="42.804671" lon="0.150408">
        <ele>2555.6</ele>
        <time>2014-08-15T13:40:38Z</time>
      </trkpt>
      <trkpt lat="42.804761" lon="0.150404">
        <ele>2549.6</ele>
        <time>2014-08-15T13:40:56Z</time>
      </trkpt>
      <trkpt lat="42.804833" lon="0.150405">
        <ele>2544.0</ele>
        <time>2014-08-15T13:41:11Z</time>
      </trkpt>
      <trkpt lat="42.804922" lon="0.150430">
        <ele>2537.8</ele>
        <time>2014-08-15T13:41:27Z</time>
      </trkpt>
      <trkpt lat="42.804988" lon="0.150379">
        <ele>2531.1</ele>
        <time>2014-08-15T13:41:47Z</time>
      </trkpt>
      <trkpt lat="42.805065" lon="0.150340">
        <ele>2526.9</ele>
        <time>2014-08-15T13:42:02Z</time>
      </trkpt>
      <trkpt lat="42.805126" lon="0.150363">
        <ele>2521.6</ele>
        <time>2014-08-15T13:42:16Z</time>
      </trkpt>
      <trkpt lat="42.805203" lon="0.150372">
        <ele>2516.0</ele>
        <time>2014-08-15T13:42:40Z</time>
      </trkpt>
      <trkpt lat="42.805272" lon="0.150366">
        <ele>2513.5</ele>
        <time>2014-08-15T13:42:56Z</time>
      </trkpt>
      <trkpt lat="42.805355" lon="0.150294">
        <ele>2511.9</ele>
        <time>2014-08-15T13:43:12Z</time>
      </trkpt>
      <trkpt lat="42.805319" lon="0.150340">
        <ele>2511.7</ele>
        <time>2014-08-15T13:43:26Z</time>
      </trkpt>
      <trkpt lat="42.805308" lon="0.150342">
        <ele>2507.8</ele>
        <time>2014-08-15T13:43:59Z</time>
      </trkpt>
      <trkpt lat="42.805397" lon="0.150260">
        <ele>2503.0</ele>
        <time>2014-08-15T13:44:18Z</time>
      </trkpt>
      <trkpt lat="42.805484" lon="0.150233">
        <ele>2498.0</ele>
        <time>2014-08-15T13:44:36Z</time>
      </trkpt>
      <trkpt lat="42.805551" lon="0.150189">
        <ele>2493.4</ele>
        <time>2014-08-15T13:44:53Z</time>
      </trkpt>
      <trkpt lat="42.805606" lon="0.150197">
        <ele>2488.0</ele>
        <time>2014-08-15T13:45:15Z</time>
      </trkpt>
      <trkpt lat="42.805664" lon="0.150230">
        <ele>2484.4</ele>
        <time>2014-08-15T13:45:45Z</time>
      </trkpt>
      <trkpt lat="42.805669" lon="0.150210">
        <ele>2478.7</ele>
        <time>2014-08-15T13:46:02Z</time>
      </trkpt>
      <trkpt lat="42.805730" lon="0.150179">
        <ele>2474.3</ele>
        <time>2014-08-15T13:46:20Z</time>
      </trkpt>
      <trkpt lat="42.805742" lon="0.150155">
        <ele>2471.4</ele>
        <time>2014-08-15T13:47:33Z</time>
      </trkpt>
      <trkpt lat="42.805765" lon="0.150107">
        <ele>2469.0</ele>
        <time>2014-08-15T13:47:59Z</time>
      </trkpt>
      <trkpt lat="42.805811" lon="0.150069">
        <ele>2465.5</ele>
        <time>2014-08-15T13:48:18Z</time>
      </trkpt>
      <trkpt lat="42.805829" lon="0.149964">
        <ele>2461.5</ele>
        <time>2014-08-15T13:48:39Z</time>
      </trkpt>
      <trkpt lat="42.805849" lon="0.149922">
        <ele>2455.2</ele>
        <time>2014-08-15T13:49:02Z</time>
      </trkpt>
      <trkpt lat="42.805879" lon="0.149850">
        <ele>2452.6</ele>
        <time>2014-08-15T13:49:31Z</time>
      </trkpt>
      <trkpt lat="42.805940" lon="0.149875">
        <ele>2448.6</ele>
        <time>2014-08-15T13:49:55Z</time>
      </trkpt>
      <trkpt lat="42.806024" lon="0.149765">
        <ele>2445.5</ele>
        <time>2014-08-15T13:50:09Z</time>
      </trkpt>
      <trkpt lat="42.806044" lon="0.149658">
        <ele>2440.8</ele>
        <time>2014-08-15T13:50:22Z</time>
      </trkpt>
      <trkpt lat="42.806091" lon="0.149545">
        <ele>2436.5</ele>
        <time>2014-08-15T13:50:33Z</time>
      </trkpt>
      <trkpt lat="42.806216" lon="0.149431">
        <ele>2419.9</ele>
        <time>2014-08-15T13:52:12Z</time>
      </trkpt>
      <trkpt lat="42.806286" lon="0.149531">
        <ele>2416.8</ele>
        <time>2014-08-15T13:52:28Z</time>
      </trkpt>
      <trkpt lat="42.806366" lon="0.149595">
        <ele>2414.2</ele>
        <time>2014-08-15T13:52:45Z</time>
      </trkpt>
      <trkpt lat="42.806448" lon="0.149676">
        <ele>2412.1</ele>
        <time>2014-08-15T13:52:58Z</time>
      </trkpt>
      <trkpt lat="42.806552" lon="0.149737">
        <ele>2409.7</ele>
        <time>2014-08-15T13:53:14Z</time>
      </trkpt>
      <trkpt lat="42.806624" lon="0.149758">
        <ele>2406.6</ele>
        <time>2014-08-15T13:53:34Z</time>
      </trkpt>
      <trkpt lat="42.806662" lon="0.149774">
        <ele>2401.0</ele>
        <time>2014-08-15T13:53:59Z</time>
      </trkpt>
      <trkpt lat="42.806724" lon="0.149829">
        <ele>2398.3</ele>
        <time>2014-08-15T13:54:20Z</time>
      </trkpt>
      <trkpt lat="42.806798" lon="0.149835">
        <ele>2396.6</ele>
        <time>2014-08-15T13:54:39Z</time>
      </trkpt>
      <trkpt lat="42.806922" lon="0.149860">
        <ele>2393.3</ele>
        <time>2014-08-15T13:55:02Z</time>
      </trkpt>
      <trkpt lat="42.807041" lon="0.149877">
        <ele>2390.1</ele>
        <time>2014-08-15T13:55:31Z</time>
      </trkpt>
      <trkpt lat="42.807155" lon="0.149888">
        <ele>2389.8</ele>
        <time>2014-08-15T13:55:53Z</time>
      </trkpt>
      <trkpt lat="42.807263" lon="0.149897">
        <ele>2387.0</ele>
        <time>2014-08-15T13:56:14Z</time>
      </trkpt>
      <trkpt lat="42.807363" lon="0.149955">
        <ele>2385.2</ele>
        <time>2014-08-15T13:56:28Z</time>
      </trkpt>
      <trkpt lat="42.807442" lon="0.149974">
        <ele>2383.5</ele>
        <time>2014-08-15T13:56:47Z</time>
      </trkpt>
      <trkpt lat="42.807543" lon="0.149989">
        <ele>2382.8</ele>
        <time>2014-08-15T13:57:10Z</time>
      </trkpt>
      <trkpt lat="42.808305" lon="0.149600">
        <ele>2473.7</ele>
        <time>2014-08-15T14:00:38Z</time>
      </trkpt>
      <trkpt lat="42.808424" lon="0.149586">
        <ele>2367.7</ele>
        <time>2014-08-15T14:03:27Z</time>
      </trkpt>
      <trkpt lat="42.808521" lon="0.149600">
        <ele>2365.6</ele>
        <time>2014-08-15T14:03:43Z</time>
      </trkpt>
      <trkpt lat="42.808640" lon="0.149596">
        <ele>2362.8</ele>
        <time>2014-08-15T14:04:02Z</time>
      </trkpt>
      <trkpt lat="42.808746" lon="0.149640">
        <ele>2359.9</ele>
        <time>2014-08-15T14:04:46Z</time>
      </trkpt>
      <trkpt lat="42.808850" lon="0.149684">
        <ele>2358.5</ele>
        <time>2014-08-15T14:05:01Z</time>
      </trkpt>
      <trkpt lat="42.808939" lon="0.149674">
        <ele>2356.0</ele>
        <time>2014-08-15T14:05:16Z</time>
      </trkpt>
      <trkpt lat="42.809016" lon="0.149647">
        <ele>2351.5</ele>
        <time>2014-08-15T14:05:43Z</time>
      </trkpt>
      <trkpt lat="42.809107" lon="0.149612">
        <ele>2348.6</ele>
        <time>2014-08-15T14:05:58Z</time>
      </trkpt>
      <trkpt lat="42.809195" lon="0.149593">
        <ele>2345.8</ele>
        <time>2014-08-15T14:06:35Z</time>
      </trkpt>
      <trkpt lat="42.809295" lon="0.149560">
        <ele>2343.9</ele>
        <time>2014-08-15T14:06:54Z</time>
      </trkpt>
      <trkpt lat="42.809380" lon="0.149555">
        <ele>2339.8</ele>
        <time>2014-08-15T14:07:20Z</time>
      </trkpt>
      <trkpt lat="42.809445" lon="0.149585">
        <ele>2336.4</ele>
        <time>2014-08-15T14:07:45Z</time>
      </trkpt>
      <trkpt lat="42.809537" lon="0.149580">
        <ele>2332.9</ele>
        <time>2014-08-15T14:08:33Z</time>
      </trkpt>
      <trkpt lat="42.809620" lon="0.149600">
        <ele>2330.3</ele>
        <time>2014-08-15T14:08:50Z</time>
      </trkpt>
      <trkpt lat="42.809665" lon="0.149568">
        <ele>2327.3</ele>
        <time>2014-08-15T14:09:08Z</time>
      </trkpt>
      <trkpt lat="42.809710" lon="0.149580">
        <ele>2324.8</ele>
        <time>2014-08-15T14:09:38Z</time>
      </trkpt>
      <trkpt lat="42.809796" lon="0.149572">
        <ele>2321.3</ele>
        <time>2014-08-15T14:09:57Z</time>
      </trkpt>
      <trkpt lat="42.809895" lon="0.149578">
        <ele>2318.4</ele>
        <time>2014-08-15T14:10:08Z</time>
      </trkpt>
      <trkpt lat="42.810006" lon="0.149544">
        <ele>2315.9</ele>
        <time>2014-08-15T14:10:21Z</time>
      </trkpt>
      <trkpt lat="42.810067" lon="0.149552">
        <ele>2313.2</ele>
        <time>2014-08-15T14:10:34Z</time>
      </trkpt>
      <trkpt lat="42.810106" lon="0.149627">
        <ele>2310.6</ele>
        <time>2014-08-15T14:10:47Z</time>
      </trkpt>
      <trkpt lat="42.810166" lon="0.149644">
        <ele>2308.5</ele>
        <time>2014-08-15T14:10:58Z</time>
      </trkpt>
      <trkpt lat="42.810217" lon="0.149603">
        <ele>2305.9</ele>
        <time>2014-08-15T14:11:13Z</time>
      </trkpt>
      <trkpt lat="42.810321" lon="0.149613">
        <ele>2301.8</ele>
        <time>2014-08-15T14:11:29Z</time>
      </trkpt>
      <trkpt lat="42.810414" lon="0.149646">
        <ele>2297.6</ele>
        <time>2014-08-15T14:11:48Z</time>
      </trkpt>
      <trkpt lat="42.810451" lon="0.149714">
        <ele>2293.4</ele>
        <time>2014-08-15T14:12:33Z</time>
      </trkpt>
      <trkpt lat="42.810537" lon="0.149753">
        <ele>2292.2</ele>
        <time>2014-08-15T14:12:58Z</time>
      </trkpt>
      <trkpt lat="42.810609" lon="0.149730">
        <ele>2288.6</ele>
        <time>2014-08-15T14:13:09Z</time>
      </trkpt>
      <trkpt lat="42.810630" lon="0.149627">
        <ele>2282.2</ele>
        <time>2014-08-15T14:13:36Z</time>
      </trkpt>
      <trkpt lat="42.810679" lon="0.149563">
        <ele>2277.9</ele>
        <time>2014-08-15T14:13:54Z</time>
      </trkpt>
      <trkpt lat="42.810759" lon="0.149557">
        <ele>2273.7</ele>
        <time>2014-08-15T14:14:10Z</time>
      </trkpt>
      <trkpt lat="42.810788" lon="0.149463">
        <ele>2269.5</ele>
        <time>2014-08-15T14:14:28Z</time>
      </trkpt>
      <trkpt lat="42.810884" lon="0.149451">
        <ele>2264.5</ele>
        <time>2014-08-15T14:14:59Z</time>
      </trkpt>
      <trkpt lat="42.810920" lon="0.149407">
        <ele>2260.8</ele>
        <time>2014-08-15T14:15:27Z</time>
      </trkpt>
      <trkpt lat="42.810998" lon="0.149394">
        <ele>2258.7</ele>
        <time>2014-08-15T14:15:40Z</time>
      </trkpt>
      <trkpt lat="42.811038" lon="0.149339">
        <ele>2253.5</ele>
        <time>2014-08-15T14:16:01Z</time>
      </trkpt>
      <trkpt lat="42.811117" lon="0.149294">
        <ele>2249.3</ele>
        <time>2014-08-15T14:16:15Z</time>
      </trkpt>
      <trkpt lat="42.811183" lon="0.149239">
        <ele>2243.2</ele>
        <time>2014-08-15T14:16:40Z</time>
      </trkpt>
      <trkpt lat="42.811281" lon="0.149271">
        <ele>2239.9</ele>
        <time>2014-08-15T14:16:52Z</time>
      </trkpt>
      <trkpt lat="42.811359" lon="0.149247">
        <ele>2237.6</ele>
        <time>2014-08-15T14:17:02Z</time>
      </trkpt>
      <trkpt lat="42.811422" lon="0.149225">
        <ele>2233.3</ele>
        <time>2014-08-15T14:17:17Z</time>
      </trkpt>
      <trkpt lat="42.811490" lon="0.149220">
        <ele>2228.6</ele>
        <time>2014-08-15T14:17:35Z</time>
      </trkpt>
      <trkpt lat="42.811546" lon="0.149151">
        <ele>2223.9</ele>
        <time>2014-08-15T14:17:54Z</time>
      </trkpt>
      <trkpt lat="42.811628" lon="0.149172">
        <ele>2222.7</ele>
        <time>2014-08-15T14:18:03Z</time>
      </trkpt>
      <trkpt lat="42.811726" lon="0.149171">
        <ele>2219.4</ele>
        <time>2014-08-15T14:18:17Z</time>
      </trkpt>
      <trkpt lat="42.811788" lon="0.149089">
        <ele>2217.4</ele>
        <time>2014-08-15T14:18:30Z</time>
      </trkpt>
      <trkpt lat="42.811868" lon="0.149054">
        <ele>2213.7</ele>
        <time>2014-08-15T14:18:45Z</time>
      </trkpt>
      <trkpt lat="42.811957" lon="0.149046">
        <ele>2211.1</ele>
        <time>2014-08-15T14:18:57Z</time>
      </trkpt>
      <trkpt lat="42.812040" lon="0.148998">
        <ele>2208.5</ele>
        <time>2014-08-15T14:19:09Z</time>
      </trkpt>
      <trkpt lat="42.812100" lon="0.148946">
        <ele>2205.7</ele>
        <time>2014-08-15T14:19:23Z</time>
      </trkpt>
      <trkpt lat="42.812191" lon="0.148942">
        <ele>2202.9</ele>
        <time>2014-08-15T14:19:39Z</time>
      </trkpt>
      <trkpt lat="42.812274" lon="0.148864">
        <ele>2200.1</ele>
        <time>2014-08-15T14:19:53Z</time>
      </trkpt>
      <trkpt lat="42.812320" lon="0.148775">
        <ele>2195.9</ele>
        <time>2014-08-15T14:20:23Z</time>
      </trkpt>
      <trkpt lat="42.812346" lon="0.148798">
        <ele>2193.5</ele>
        <time>2014-08-15T14:21:10Z</time>
      </trkpt>
      <trkpt lat="42.812419" lon="0.148804">
        <ele>2192.5</ele>
        <time>2014-08-15T14:21:54Z</time>
      </trkpt>
      <trkpt lat="42.812499" lon="0.148822">
        <ele>2187.6</ele>
        <time>2014-08-15T14:22:19Z</time>
      </trkpt>
      <trkpt lat="42.812531" lon="0.148747">
        <ele>2184.6</ele>
        <time>2014-08-15T14:22:41Z</time>
      </trkpt>
      <trkpt lat="42.812529" lon="0.148665">
        <ele>2179.1</ele>
        <time>2014-08-15T14:23:02Z</time>
      </trkpt>
      <trkpt lat="42.812582" lon="0.148593">
        <ele>2173.9</ele>
        <time>2014-08-15T14:23:20Z</time>
      </trkpt>
      <trkpt lat="42.812613" lon="0.148511">
        <ele>2168.3</ele>
        <time>2014-08-15T14:23:39Z</time>
      </trkpt>
      <trkpt lat="42.812666" lon="0.148444">
        <ele>2164.0</ele>
        <time>2014-08-15T14:23:53Z</time>
      </trkpt>
      <trkpt lat="42.812721" lon="0.148347">
        <ele>2159.6</ele>
        <time>2014-08-15T14:24:06Z</time>
      </trkpt>
      <trkpt lat="42.812780" lon="0.148271">
        <ele>2155.6</ele>
        <time>2014-08-15T14:24:17Z</time>
      </trkpt>
      <trkpt lat="42.812803" lon="0.148171">
        <ele>2150.6</ele>
        <time>2014-08-15T14:24:32Z</time>
      </trkpt>
      <trkpt lat="42.812853" lon="0.148093">
        <ele>2147.6</ele>
        <time>2014-08-15T14:24:45Z</time>
      </trkpt>
      <trkpt lat="42.812942" lon="0.148042">
        <ele>2145.6</ele>
        <time>2014-08-15T14:25:11Z</time>
      </trkpt>
      <trkpt lat="42.813026" lon="0.147994">
        <ele>2143.8</ele>
        <time>2014-08-15T14:25:19Z</time>
      </trkpt>
      <trkpt lat="42.813100" lon="0.147946">
        <ele>2140.4</ele>
        <time>2014-08-15T14:25:27Z</time>
      </trkpt>
      <trkpt lat="42.813201" lon="0.147899">
        <ele>2137.3</ele>
        <time>2014-08-15T14:25:36Z</time>
      </trkpt>
      <trkpt lat="42.813272" lon="0.147814">
        <ele>2134.9</ele>
        <time>2014-08-15T14:25:44Z</time>
      </trkpt>
      <trkpt lat="42.813348" lon="0.147751">
        <ele>2132.8</ele>
        <time>2014-08-15T14:25:51Z</time>
      </trkpt>
      <trkpt lat="42.813438" lon="0.147738">
        <ele>2130.9</ele>
        <time>2014-08-15T14:25:58Z</time>
      </trkpt>
      <trkpt lat="42.813543" lon="0.147712">
        <ele>2128.5</ele>
        <time>2014-08-15T14:26:05Z</time>
      </trkpt>
      <trkpt lat="42.813639" lon="0.147701">
        <ele>2125.8</ele>
        <time>2014-08-15T14:26:12Z</time>
      </trkpt>
      <trkpt lat="42.813731" lon="0.147707">
        <ele>2123.1</ele>
        <time>2014-08-15T14:26:21Z</time>
      </trkpt>
      <trkpt lat="42.813819" lon="0.147687">
        <ele>2120.4</ele>
        <time>2014-08-15T14:26:31Z</time>
      </trkpt>
      <trkpt lat="42.813917" lon="0.147689">
        <ele>2118.0</ele>
        <time>2014-08-15T14:26:40Z</time>
      </trkpt>
      <trkpt lat="42.814015" lon="0.147694">
        <ele>2115.9</ele>
        <time>2014-08-15T14:26:48Z</time>
      </trkpt>
      <trkpt lat="42.814113" lon="0.147662">
        <ele>2113.5</ele>
        <time>2014-08-15T14:26:58Z</time>
      </trkpt>
      <trkpt lat="42.814210" lon="0.147652">
        <ele>2110.9</ele>
        <time>2014-08-15T14:27:07Z</time>
      </trkpt>
      <trkpt lat="42.814313" lon="0.147688">
        <ele>2108.7</ele>
        <time>2014-08-15T14:27:15Z</time>
      </trkpt>
      <trkpt lat="42.814410" lon="0.147691">
        <ele>2106.0</ele>
        <time>2014-08-15T14:27:23Z</time>
      </trkpt>
      <trkpt lat="42.814498" lon="0.147709">
        <ele>2102.9</ele>
        <time>2014-08-15T14:27:31Z</time>
      </trkpt>
      <trkpt lat="42.814575" lon="0.147672">
        <ele>2100.6</ele>
        <time>2014-08-15T14:27:39Z</time>
      </trkpt>
      <trkpt lat="42.814653" lon="0.147624">
        <ele>2099.0</ele>
        <time>2014-08-15T14:27:45Z</time>
      </trkpt>
      <trkpt lat="42.814745" lon="0.147591">
        <ele>2097.2</ele>
        <time>2014-08-15T14:27:53Z</time>
      </trkpt>
      <trkpt lat="42.814847" lon="0.147576">
        <ele>2095.4</ele>
        <time>2014-08-15T14:28:01Z</time>
      </trkpt>
      <trkpt lat="42.814938" lon="0.147633">
        <ele>2093.4</ele>
        <time>2014-08-15T14:28:09Z</time>
      </trkpt>
      <trkpt lat="42.815039" lon="0.147649">
        <ele>2090.8</ele>
        <time>2014-08-15T14:28:17Z</time>
      </trkpt>
      <trkpt lat="42.815132" lon="0.147646">
        <ele>2088.7</ele>
        <time>2014-08-15T14:28:24Z</time>
      </trkpt>
      <trkpt lat="42.815219" lon="0.147660">
        <ele>2085.9</ele>
        <time>2014-08-15T14:28:32Z</time>
      </trkpt>
      <trkpt lat="42.815254" lon="0.147556">
        <ele>2084.5</ele>
        <time>2014-08-15T14:28:39Z</time>
      </trkpt>
      <trkpt lat="42.815276" lon="0.147442">
        <ele>2084.4</ele>
        <time>2014-08-15T14:28:48Z</time>
      </trkpt>
      <trkpt lat="42.815298" lon="0.147312">
        <ele>2084.0</ele>
        <time>2014-08-15T14:28:59Z</time>
      </trkpt>
      <trkpt lat="42.815318" lon="0.147190">
        <ele>2083.9</ele>
        <time>2014-08-15T14:29:07Z</time>
      </trkpt>
      <trkpt lat="42.815337" lon="0.147051">
        <ele>2083.6</ele>
        <time>2014-08-15T14:29:15Z</time>
      </trkpt>
      <trkpt lat="42.815334" lon="0.146912">
        <ele>2083.3</ele>
        <time>2014-08-15T14:29:23Z</time>
      </trkpt>
      <trkpt lat="42.815332" lon="0.146770">
        <ele>2083.1</ele>
        <time>2014-08-15T14:29:33Z</time>
      </trkpt>
      <trkpt lat="42.815374" lon="0.146621">
        <ele>2082.7</ele>
        <time>2014-08-15T14:33:13Z</time>
      </trkpt>
      <trkpt lat="42.815470" lon="0.146542">
        <ele>2082.0</ele>
        <time>2014-08-15T14:33:23Z</time>
      </trkpt>
      <trkpt lat="42.815557" lon="0.146483">
        <ele>2081.1</ele>
        <time>2014-08-15T14:33:32Z</time>
      </trkpt>
      <trkpt lat="42.815642" lon="0.146425">
        <ele>2080.4</ele>
        <time>2014-08-15T14:33:41Z</time>
      </trkpt>
      <trkpt lat="42.815725" lon="0.146375">
        <ele>2079.2</ele>
        <time>2014-08-15T14:33:58Z</time>
      </trkpt>
      <trkpt lat="42.815735" lon="0.146362">
        <ele>2078.8</ele>
        <time>2014-08-15T14:34:14Z</time>
      </trkpt>
    </trkseg>
  </trk>
</gpx>

